Time;durP1;ratioP1;P1;durP2;ratioP2;P2;SDS_P1;SDS_P2;PMS_P1;PMS_P2;Temp;Humidity;BMP_temperature;BMP_pressure;BME280_temperature;BME280_humidity;BME280_pressure;Samples;Min_cycle;Max_cycle;Signal;HPM_P1;HPM_P2
2022/10/19 00:01:09;;;;;;;11.68;9.50;;;;;;;;;;5052825;28;20053;-68
2022/10/19 00:03:36;;;;;;;10.80;8.85;;;;;;;;;;5054269;28;20118;-68
2022/10/19 00:06:13;;;;;;;13.23;8.68;;;;;;;;;;5052995;28;20144;-69
2022/10/19 00:08:40;;;;;;;13.10;8.57;;;;;;;;;;5053414;28;20098;-68
2022/10/19 00:11:07;;;;;;;14.98;9.32;;;;;;;;;;5052771;28;20076;-68
2022/10/19 00:13:34;;;;;;;13.40;9.40;;;;;;;;;;5052476;28;20090;-68
2022/10/19 00:16:01;;;;;;;15.85;9.95;;;;;;;;;;5052851;28;20088;-68
2022/10/19 00:18:27;;;;;;;20.33;10.57;;;;;;;;;;5051947;28;20095;-68
2022/10/19 00:21:03;;;;;;;10.20;8.98;;;;;;;;;;5053545;28;20056;-68
2022/10/19 00:23:30;;;;;;;11.68;8.98;;;;;;;;;;5052686;28;20120;-68
2022/10/19 00:25:57;;;;;;;13.30;9.18;;;;;;;;;;5053661;28;20499;-68
2022/10/19 00:28:23;;;;;;;12.48;8.95;;;;;;;;;;5035421;28;20131;-68
2022/10/19 00:30:50;;;;;;;17.25;10.27;;;;;;;;;;5053780;28;20049;-68
2022/10/19 00:33:20;;;;;;;15.57;9.50;;;;;;;;;;5035694;28;20076;-68
2022/10/19 00:35:49;;;;;;;13.20;9.05;;;;;;;;;;5052280;28;20135;-68
2022/10/19 00:38:19;;;;;;;13.32;9.93;;;;;;;;;;5051727;28;20049;-68
2022/10/19 00:40:46;;;;;;;14.30;9.13;;;;;;;;;;5051987;28;20099;-68
2022/10/19 00:43:25;;;;;;;14.23;10.68;;;;;;;;;;5035441;28;20045;-67
2022/10/19 00:45:52;;;;;;;12.77;10.38;;;;;;;;;;5052288;28;20083;-68
2022/10/19 00:48:30;;;;;;;18.33;12.02;;;;;;;;;;5052663;28;20071;-68
2022/10/19 00:50:57;;;;;;;15.02;10.07;;;;;;;;;;5051885;28;20049;-68
2022/10/19 00:53:25;;;;;;;20.02;11.50;;;;;;;;;;5051626;28;20079;-68
2022/10/19 00:55:52;;;;;;;14.63;10.68;;;;;;;;;;5052006;28;20132;-68
2022/10/19 00:58:18;;;;;;;13.85;11.00;;;;;;;;;;5034956;28;20087;-68
2022/10/19 01:00:45;;;;;;;16.58;12.40;;;;;;;;;;5050926;28;20053;-68
2022/10/19 01:03:12;;;;;;;22.23;12.82;;;;;;;;;;5051748;28;20095;-68
2022/10/19 01:05:39;;;;;;;22.95;14.27;;;;;;;;;;5051644;28;20077;-68
2022/10/19 01:08:05;;;;;;;28.33;15.82;;;;;;;;;;5051357;28;20129;-68
2022/10/19 01:10:58;;;;;;;32.92;15.43;;;;;;;;;;5051302;28;20224;-68
2022/10/19 01:13:28;;;;;;;33.17;15.77;;;;;;;;;;5051767;28;20099;-68
2022/10/19 01:16:02;;;;;;;26.98;15.07;;;;;;;;;;5052607;28;20106;-68
2022/10/19 01:18:45;;;;;;;25.58;14.45;;;;;;;;;;5035182;28;20088;-69
2022/10/19 01:21:18;;;;;;;27.13;13.57;;;;;;;;;;5051547;28;20127;-68
2022/10/19 01:23:44;;;;;;;25.95;13.63;;;;;;;;;;5035875;28;20130;-68
2022/10/19 01:26:51;;;;;;;26.13;13.23;;;;;;;;;;5052393;28;20088;-68
2022/10/19 01:29:58;;;;;;;26.05;12.45;;;;;;;;;;5050713;28;20151;-68
2022/10/19 01:32:31;;;;;;;27.80;12.88;;;;;;;;;;5051276;28;20108;-69
2022/10/19 01:35:06;;;;;;;28.17;13.60;;;;;;;;;;5052118;28;20106;-68
2022/10/19 01:37:45;;;;;;;33.72;13.00;;;;;;;;;;5052346;28;20103;-69
2022/10/19 01:40:16;;;;;;;52.65;14.73;;;;;;;;;;5051925;28;20103;-68
2022/10/19 01:42:44;;;;;;;37.65;16.02;;;;;;;;;;5035044;28;20049;-68
2022/10/19 01:45:17;;;;;;;37.00;14.65;;;;;;;;;;5050942;28;20049;-68
2022/10/19 01:47:56;;;;;;;65.32;15.82;;;;;;;;;;5018022;28;20084;-68
2022/10/19 01:50:43;;;;;;;56.03;16.35;;;;;;;;;;5052123;28;20529;-68
2022/10/19 01:53:11;;;;;;;36.35;15.48;;;;;;;;;;5050738;28;20045;-68
2022/10/19 01:55:41;;;;;;;37.78;16.38;;;;;;;;;;5050744;28;20053;-69
2022/10/19 01:58:09;;;;;;;31.08;13.85;;;;;;;;;;5050344;28;20102;-68
2022/10/19 02:00:37;;;;;;;31.88;14.65;;;;;;;;;;5032342;28;20303;-68
2022/10/19 02:03:04;;;;;;;32.50;13.75;;;;;;;;;;5050850;28;20419;-68
2022/10/19 02:05:32;;;;;;;26.45;13.70;;;;;;;;;;5050604;28;20102;-68
2022/10/19 02:08:00;;;;;;;26.48;12.57;;;;;;;;;;5033668;28;20053;-68
2022/10/19 02:10:27;;;;;;;24.08;12.65;;;;;;;;;;5034163;28;20122;-68
2022/10/19 02:12:54;;;;;;;29.73;12.30;;;;;;;;;;5050495;28;20052;-68
2022/10/19 02:15:22;;;;;;;21.30;11.55;;;;;;;;;;5050626;28;20498;-68
2022/10/19 02:17:50;;;;;;;38.58;12.02;;;;;;;;;;5050100;28;20102;-68
2022/10/19 02:20:18;;;;;;;39.55;12.05;;;;;;;;;;5050434;28;20079;-68
2022/10/19 02:22:44;;;;;;;22.88;10.70;;;;;;;;;;5050395;28;20534;-68
2022/10/19 02:25:11;;;;;;;24.45;10.63;;;;;;;;;;5050444;28;20048;-68
2022/10/19 02:27:40;;;;;;;29.20;10.00;;;;;;;;;;5033929;28;20136;-68
2022/10/19 02:30:12;;;;;;;36.75;10.88;;;;;;;;;;5033701;28;20048;-68
2022/10/19 02:32:39;;;;;;;23.65;11.90;;;;;;;;;;5034645;28;20053;-68
2022/10/19 02:35:06;;;;;;;18.23;9.88;;;;;;;;;;5051335;28;20045;-68
2022/10/19 02:37:32;;;;;;;17.30;10.27;;;;;;;;;;5050337;28;20499;-68
2022/10/19 02:40:00;;;;;;;18.88;11.50;;;;;;;;;;5049643;28;20078;-68
2022/10/19 02:42:34;;;;;;;15.75;10.98;;;;;;;;;;5050236;28;20088;-68
2022/10/19 02:45:04;;;;;;;17.33;11.23;;;;;;;;;;5050131;28;20052;-68
2022/10/19 02:47:41;;;;;;;17.08;10.45;;;;;;;;;;5051349;28;20088;-68
2022/10/19 02:50:08;;;;;;;16.05;9.80;;;;;;;;;;5033171;28;20048;-68
2022/10/19 02:52:39;;;;;;;24.58;10.73;;;;;;;;;;5033902;28;20080;-69
2022/10/19 02:55:06;;;;;;;17.45;10.43;;;;;;;;;;5050148;28;20091;-68
2022/10/19 02:57:33;;;;;;;19.35;9.48;;;;;;;;;;5017532;28;20080;-69
2022/10/19 03:00:00;;;;;;;15.05;10.52;;;;;;;;;;5032877;28;20059;-68
2022/10/19 03:02:26;;;;;;;17.52;10.45;;;;;;;;;;5051112;28;20057;-68
2022/10/19 03:04:53;;;;;;;16.65;10.63;;;;;;;;;;5051325;28;20049;-68
2022/10/19 03:07:20;;;;;;;19.65;9.30;;;;;;;;;;5050993;28;20076;-68
2022/10/19 03:09:47;;;;;;;14.75;10.07;;;;;;;;;;5033098;28;20052;-68
2022/10/19 03:12:14;;;;;;;18.63;10.35;;;;;;;;;;5033730;28;20515;-68
2022/10/19 03:14:41;;;;;;;19.63;10.48;;;;;;;;;;5049915;28;20128;-68
2022/10/19 03:17:07;;;;;;;22.98;11.15;;;;;;;;;;5033493;28;20515;-69
2022/10/19 03:19:35;;;;;;;17.02;10.77;;;;;;;;;;5049110;28;20080;-68
2022/10/19 03:22:02;;;;;;;18.85;10.85;;;;;;;;;;5031791;28;20049;-69
2022/10/19 03:24:29;;;;;;;22.67;12.63;;;;;;;;;;5026357;28;20498;-68
2022/10/19 03:26:56;;;;;;;24.55;11.57;;;;;;;;;;5043835;28;20073;-69
2022/10/19 03:29:22;;;;;;;33.60;13.05;;;;;;;;;;5043285;28;20049;-68
2022/10/19 03:31:49;;;;;;;32.78;12.00;;;;;;;;;;5047500;28;20526;-68
2022/10/19 03:34:15;;;;;;;27.58;12.18;;;;;;;;;;5028529;28;20079;-68
2022/10/19 03:36:42;;;;;;;25.45;13.15;;;;;;;;;;5054747;28;20049;-67
2022/10/19 03:39:11;;;;;;;29.95;15.57;;;;;;;;;;5054004;28;20081;-68
2022/10/19 03:41:37;;;;;;;32.15;14.73;;;;;;;;;;5037117;28;20499;-68
2022/10/19 03:44:05;;;;;;;37.72;15.80;;;;;;;;;;5053323;28;20045;-68
2022/10/19 03:46:32;;;;;;;34.08;15.50;;;;;;;;;;5037101;28;20076;-68
2022/10/19 03:49:00;;;;;;;29.20;14.55;;;;;;;;;;5052494;28;20503;-67
2022/10/19 03:51:28;;;;;;;33.28;13.65;;;;;;;;;;5036690;28;20057;-67
2022/10/19 03:53:57;;;;;;;34.88;15.35;;;;;;;;;;5054253;28;20444;-68
2022/10/19 03:56:24;;;;;;;34.20;14.38;;;;;;;;;;5020241;28;20606;-67
2022/10/19 03:58:53;;;;;;;32.00;15.40;;;;;;;;;;5052029;28;20111;-68
2022/10/19 04:01:24;;;;;;;47.13;17.05;;;;;;;;;;5003393;23;20580;-67
2022/10/19 04:03:58;;;;;;;38.67;15.45;;;;;;;;;;4992163;28;20096;-66
2022/10/19 04:06:27;;;;;;;39.85;16.42;;;;;;;;;;4991833;28;20466;-66
2022/10/19 04:08:54;;;;;;;39.90;15.73;;;;;;;;;;4991081;28;20100;-68
2022/10/19 04:11:23;;;;;;;35.08;15.32;;;;;;;;;;4991443;28;20054;-68
2022/10/19 04:13:56;;;;;;;45.38;15.27;;;;;;;;;;4988576;28;20074;-68
2022/10/19 04:16:24;;;;;;;34.25;12.90;;;;;;;;;;4990515;28;20054;-67
2022/10/19 04:18:51;;;;;;;30.60;14.80;;;;;;;;;;4985178;28;20075;-68
2022/10/19 04:21:29;;;;;;;35.47;15.57;;;;;;;;;;4970779;28;20059;-67
2022/10/19 04:24:01;;;;;;;29.13;13.70;;;;;;;;;;4972353;28;20074;-67
2022/10/19 04:26:28;;;;;;;24.63;14.18;;;;;;;;;;4972027;28;20054;-67
2022/10/19 04:28:58;;;;;;;20.42;13.50;;;;;;;;;;4977090;28;20089;-68
2022/10/19 04:31:26;;;;;;;23.90;14.30;;;;;;;;;;4991362;28;20310;-68
2022/10/19 04:33:53;;;;;;;19.63;12.48;;;;;;;;;;4990086;28;20046;-68
2022/10/19 04:36:20;;;;;;;20.88;13.00;;;;;;;;;;4990001;28;20104;-67
2022/10/19 04:38:47;;;;;;;19.08;13.10;;;;;;;;;;4990771;28;20057;-68
2022/10/19 04:41:16;;;;;;;18.33;12.32;;;;;;;;;;4991019;28;20089;-67
2022/10/19 04:43:45;;;;;;;20.20;13.05;;;;;;;;;;4991121;28;20050;-68
2022/10/19 04:46:13;;;;;;;17.05;11.68;;;;;;;;;;4991222;28;20046;-67
2022/10/19 04:48:40;;;;;;;18.48;12.32;;;;;;;;;;4986890;28;20104;-67
2022/10/19 04:51:08;;;;;;;17.75;12.07;;;;;;;;;;4971315;28;20082;-68
2022/10/19 04:53:36;;;;;;;18.63;12.55;;;;;;;;;;4971429;28;20104;-67
2022/10/19 04:56:04;;;;;;;18.00;12.20;;;;;;;;;;4971790;28;20074;-68
2022/10/19 04:58:30;;;;;;;15.15;11.10;;;;;;;;;;4971205;28;20047;-68
2022/10/19 05:00:57;;;;;;;15.57;11.30;;;;;;;;;;4977547;28;20516;-66
2022/10/19 05:03:24;;;;;;;14.25;10.98;;;;;;;;;;4990922;28;20085;-66
2022/10/19 05:05:50;;;;;;;13.88;11.48;;;;;;;;;;4990995;28;20054;-67
2022/10/19 05:08:17;;;;;;;15.57;10.57;;;;;;;;;;4990274;28;20093;-66
2022/10/19 05:10:43;;;;;;;13.77;10.77;;;;;;;;;;4990655;28;20054;-66
2022/10/19 05:13:13;;;;;;;15.02;10.07;;;;;;;;;;4990742;28;20050;-66
2022/10/19 05:15:40;;;;;;;15.02;11.23;;;;;;;;;;4990414;28;20050;-66
2022/10/19 05:18:07;;;;;;;18.95;12.73;;;;;;;;;;4989348;28;20054;-66
2022/10/19 05:20:33;;;;;;;17.02;12.38;;;;;;;;;;4990535;28;20493;-66
2022/10/19 05:23:00;;;;;;;17.75;12.88;;;;;;;;;;4990817;28;20718;-66
2022/10/19 05:25:32;;;;;;;17.40;12.30;;;;;;;;;;4990617;28;20053;-67
2022/10/19 05:27:59;;;;;;;17.80;13.57;;;;;;;;;;4989954;28;20054;-66
2022/10/19 05:30:26;;;;;;;17.48;12.20;;;;;;;;;;4990113;28;20100;-66
2022/10/19 05:32:52;;;;;;;15.80;12.05;;;;;;;;;;4990644;28;20079;-66
2022/10/19 05:35:20;;;;;;;18.67;12.13;;;;;;;;;;4985836;28;20142;-67
2022/10/19 05:37:52;;;;;;;16.05;11.63;;;;;;;;;;4970325;28;20061;-68
2022/10/19 05:40:19;;;;;;;22.55;13.43;;;;;;;;;;4970620;28;20154;-66
2022/10/19 05:42:45;;;;;;;18.65;13.52;;;;;;;;;;4970653;28;20100;-67
2022/10/19 05:45:12;;;;;;;19.60;13.48;;;;;;;;;;4974532;28;20050;-66
2022/10/19 05:47:38;;;;;;;23.98;13.40;;;;;;;;;;4989807;28;20080;-66
2022/10/19 05:50:05;;;;;;;16.20;12.02;;;;;;;;;;4989619;28;20436;-67
2022/10/19 05:52:32;;;;;;;16.50;11.95;;;;;;;;;;4990086;28;20074;-67
2022/10/19 05:54:58;;;;;;;19.10;12.63;;;;;;;;;;4970332;28;20078;-67
2022/10/19 05:57:25;;;;;;;17.63;12.68;;;;;;;;;;4968773;28;20138;-66
2022/10/19 05:59:55;;;;;;;16.27;12.10;;;;;;;;;;4966728;28;20583;-67
2022/10/19 06:02:22;;;;;;;16.15;11.98;;;;;;;;;;4969012;28;20524;-67
2022/10/19 06:04:49;;;;;;;18.42;12.15;;;;;;;;;;4968383;28;20165;-68
2022/10/19 06:07:15;;;;;;;15.02;11.88;;;;;;;;;;4968623;28;20131;-66
2022/10/19 06:09:42;;;;;;;19.13;12.90;;;;;;;;;;4967784;28;20059;-66
2022/10/19 06:12:08;;;;;;;16.73;12.55;;;;;;;;;;4967981;28;20576;-66
2022/10/19 06:14:35;;;;;;;15.15;11.40;;;;;;;;;;4968644;28;20092;-66
2022/10/19 06:17:02;;;;;;;17.02;12.00;;;;;;;;;;4968405;28;20096;-67
2022/10/19 06:19:28;;;;;;;16.10;12.43;;;;;;;;;;4967645;28;20055;-66
2022/10/19 06:21:55;;;;;;;13.13;10.73;;;;;;;;;;4968369;28;20092;-66
2022/10/19 06:24:21;;;;;;;17.60;11.43;;;;;;;;;;4967740;28;20047;-66
2022/10/19 06:26:48;;;;;;;12.90;9.95;;;;;;;;;;4982662;28;20094;-67
2022/10/19 06:29:15;;;;;;;16.90;9.98;;;;;;;;;;4987443;28;20054;-67
2022/10/19 06:31:41;;;;;;;15.63;10.00;;;;;;;;;;4987754;28;20139;-66
2022/10/19 06:34:08;;;;;;;14.40;9.55;;;;;;;;;;4987719;28;20161;-67
2022/10/19 06:36:35;;;;;;;11.73;9.25;;;;;;;;;;4987307;28;20046;-66
2022/10/19 06:39:02;;;;;;;12.50;9.40;;;;;;;;;;4985402;28;20074;-67
2022/10/19 06:41:29;;;;;;;12.90;9.43;;;;;;;;;;4970254;28;20133;-68
2022/10/19 06:43:56;;;;;;;11.68;9.88;;;;;;;;;;4988913;28;20051;-68
2022/10/19 06:46:24;;;;;;;14.00;9.20;;;;;;;;;;4989110;28;20108;-66
2022/10/19 06:48:56;;;;;;;11.90;9.38;;;;;;;;;;4988724;28;20076;-66
2022/10/19 06:51:24;;;;;;;10.73;9.63;;;;;;;;;;4989207;28;20188;-66
2022/10/19 06:53:51;;;;;;;10.90;9.80;;;;;;;;;;4989557;28;20054;-66
2022/10/19 06:56:23;;;;;;;12.10;9.30;;;;;;;;;;4989355;28;20050;-65
2022/10/19 06:58:50;;;;;;;13.35;10.35;;;;;;;;;;4989705;28;20084;-65
2022/10/19 07:01:17;;;;;;;11.02;9.82;;;;;;;;;;4992637;28;20054;-67
2022/10/19 07:03:44;;;;;;;12.15;9.80;;;;;;;;;;4992583;28;20513;-66
2022/10/19 07:06:11;;;;;;;11.20;9.88;;;;;;;;;;4992224;28;20081;-65
2022/10/19 07:08:39;;;;;;;11.02;9.82;;;;;;;;;;4992255;28;20397;-66
2022/10/19 07:11:08;;;;;;;14.63;10.45;;;;;;;;;;4992559;28;20416;-66
2022/10/19 07:13:34;;;;;;;14.90;9.70;;;;;;;;;;4992481;28;20501;-65
2022/10/19 07:16:07;;;;;;;11.25;9.93;;;;;;;;;;4983450;28;20085;-66
2022/10/19 07:18:34;;;;;;;18.83;10.50;;;;;;;;;;4972402;28;20051;-66
2022/10/19 07:21:03;;;;;;;13.32;10.48;;;;;;;;;;4971999;28;20112;-65
2022/10/19 07:23:30;;;;;;;15.45;12.20;;;;;;;;;;4956066;28;20127;-67
2022/10/19 07:26:02;;;;;;;17.60;11.57;;;;;;;;;;4972840;28;20070;-66
2022/10/19 07:28:29;;;;;;;15.55;12.50;;;;;;;;;;4972328;28;20588;-66
2022/10/19 07:30:56;;;;;;;16.73;12.45;;;;;;;;;;4971688;28;20137;-69
2022/10/19 07:33:22;;;;;;;15.23;12.20;;;;;;;;;;4973030;28;20776;-66
2022/10/19 07:35:49;;;;;;;13.95;11.50;;;;;;;;;;4976233;28;20467;-66
2022/10/19 07:38:15;;;;;;;14.68;11.68;;;;;;;;;;4991811;28;20051;-66
2022/10/19 07:40:42;;;;;;;17.13;11.52;;;;;;;;;;4984127;28;20129;-66
2022/10/19 07:43:12;;;;;;;18.00;12.23;;;;;;;;;;4971897;28;20066;-66
2022/10/19 07:45:39;;;;;;;17.80;12.15;;;;;;;;;;4983658;28;20054;-66
2022/10/19 07:48:06;;;;;;;17.30;12.57;;;;;;;;;;4991777;28;20440;-67
2022/10/19 07:50:32;;;;;;;14.00;11.18;;;;;;;;;;4990317;28;20163;-67
2022/10/19 07:53:01;;;;;;;12.13;10.82;;;;;;;;;;4981993;28;20116;-66
2022/10/19 07:55:28;;;;;;;12.40;9.68;;;;;;;;;;4981386;28;20069;-67
2022/10/19 07:57:54;;;;;;;12.35;10.55;;;;;;;;;;4991402;28;20471;-67
2022/10/19 08:00:21;;;;;;;11.60;9.45;;;;;;;;;;4990037;28;20508;-66
2022/10/19 08:02:47;;;;;;;11.50;10.30;;;;;;;;;;4991742;28;20050;-66
2022/10/19 08:05:34;;;;;;;12.02;9.25;;;;;;;;;;4981881;28;20043;-66
2022/10/19 08:08:01;;;;;;;10.52;9.35;;;;;;;;;;4972411;28;20558;-68
2022/10/19 08:10:27;;;;;;;12.23;9.45;;;;;;;;;;4966358;28;20133;-67
2022/10/19 08:12:54;;;;;;;11.93;8.55;;;;;;;;;;4965143;28;20047;-67
2022/10/19 08:15:21;;;;;;;10.48;8.43;;;;;;;;;;4965002;28;20505;-69
2022/10/19 08:17:47;;;;;;;10.27;8.40;;;;;;;;;;4974912;28;20083;-71
2022/10/19 08:20:14;;;;;;;10.88;7.97;;;;;;;;;;4976833;28;20050;-68
2022/10/19 08:22:43;;;;;;;7.82;7.10;;;;;;;;;;4977177;28;20074;-70
2022/10/19 08:25:10;;;;;;;10.27;7.18;;;;;;;;;;4978675;28;20485;-66
2022/10/19 08:27:37;;;;;;;10.23;8.20;;;;;;;;;;4979791;28;20050;-71
2022/10/19 08:30:04;;;;;;;10.90;7.13;;;;;;;;;;4974777;28;20062;-71
2022/10/19 08:32:30;;;;;;;10.27;6.95;;;;;;;;;;4977157;28;20078;-68
2022/10/19 08:34:58;;;;;;;7.85;7.05;;;;;;;;;;4978695;28;20053;-69
2022/10/19 08:37:24;;;;;;;7.53;6.72;;;;;;;;;;4976974;28;20476;-69
2022/10/19 08:40:23;;;;;;;9.07;6.03;;;;;;;;;;4975263;28;20577;-66
2022/10/19 08:42:59;;;;;;;7.53;6.82;;;;;;;;;;4975876;28;20093;-71
2022/10/19 08:46:16;;;;;;;8.48;6.57;;;;;;;;;;4976658;28;20092;-67
2022/10/19 08:48:43;;;;;;;9.48;6.15;;;;;;;;;;5061575;28;20208;-67
2022/10/19 08:51:12;;;;;;;5.68;4.90;;;;;;;;;;5067602;28;20080;-66
2022/10/19 08:53:42;;;;;;;9.07;5.82;;;;;;;;;;5014539;28;20098;-70
2022/10/19 08:56:28;;;;;;;7.22;5.35;;;;;;;;;;4974280;28;20470;-70
2022/10/19 08:59:32;;;;;;;6.68;5.88;;;;;;;;;;4971920;28;20054;-71
2022/10/19 09:02:32;;;;;;;6.20;5.05;;;;;;;;;;4965237;28;20157;-71
2022/10/19 09:05:03;;;;;;;8.68;5.35;;;;;;;;;;4980083;28;20085;-66
2022/10/19 09:07:43;;;;;;;6.47;4.68;;;;;;;;;;4962413;28;20096;-70
2022/10/19 09:10:16;;;;;;;5.30;4.45;;;;;;;;;;4966347;28;20099;-71
2022/10/19 09:13:21;;;;;;;;;;;;;;;;;;4974996;28;20093;-68
2022/10/19 09:15:49;;;;;;;7.07;4.43;;;;;;;;;;5066813;28;19950;-71
2022/10/19 09:18:18;;;;;;;6.90;5.10;;;;;;;;;;5048241;28;20045;-71
2022/10/19 09:20:47;;;;;;;3.47;3.10;;;;;;;;;;5012708;28;20073;-72
2022/10/19 09:23:25;;;;;;;3.95;2.90;;;;;;;;;;4974747;28;20051;-70
2022/10/19 09:25:52;;;;;;;4.05;3.10;;;;;;;;;;4963113;28;20547;-71
2022/10/19 09:28:24;;;;;;;4.30;3.20;;;;;;;;;;4973893;28;20140;-74
2022/10/19 09:31:02;;;;;;;3.40;2.90;;;;;;;;;;4978111;28;20054;-70
2022/10/19 09:33:34;;;;;;;5.45;3.47;;;;;;;;;;4975330;28;20089;-72
2022/10/19 09:36:02;;;;;;;3.63;2.95;;;;;;;;;;4973041;28;20042;-72
2022/10/19 09:38:30;;;;;;;4.32;2.70;;;;;;;;;;4975803;28;20089;-71
2022/10/19 09:40:58;;;;;;;3.60;3.30;;;;;;;;;;4975322;28;20050;-74
2022/10/19 09:43:25;;;;;;;4.55;3.40;;;;;;;;;;4978236;28;20050;-71
2022/10/19 09:45:53;;;;;;;4.03;2.65;;;;;;;;;;4973605;28;20098;-71
2022/10/19 09:48:27;;;;;;;4.80;2.95;;;;;;;;;;4974841;28;20092;-73
2022/10/19 09:50:57;;;;;;;3.22;2.50;;;;;;;;;;4974660;28;20554;-72
2022/10/19 09:53:25;;;;;;;2.38;2.10;;;;;;;;;;4973638;28;20080;-73
2022/10/19 09:56:05;;;;;;;3.47;2.38;;;;;;;;;;4980475;28;20046;-69
2022/10/19 09:58:32;;;;;;;2.25;2.05;;;;;;;;;;4972845;28;20565;-70
2022/10/19 10:00:59;;;;;;;3.10;2.25;;;;;;;;;;5038884;23;20040;-74
2022/10/19 10:03:42;;;;;;;4.68;2.22;;;;;;;;;;5042399;28;20138;-74
2022/10/19 10:06:16;;;;;;;4.75;1.80;;;;;;;;;;5042959;28;20128;-66
2022/10/19 10:08:47;;;;;;;2.22;1.80;;;;;;;;;;5057303;28;20094;-66
2022/10/19 10:11:22;;;;;;;2.17;1.98;;;;;;;;;;5047130;28;20102;-73
2022/10/19 10:13:50;;;;;;;2.17;1.80;;;;;;;;;;5054238;28;20419;-70
2022/10/19 10:16:19;;;;;;;2.38;1.65;;;;;;;;;;5043269;28;20045;-67
2022/10/19 10:18:59;;;;;;;4.93;1.98;;;;;;;;;;5040423;28;20104;-68
2022/10/19 10:21:33;;;;;;;10.85;2.47;;;;;;;;;;5056404;28;20052;-75
2022/10/19 10:24:15;;;;;;;3.25;2.03;;;;;;;;;;5041736;28;20311;-68
2022/10/19 10:26:45;;;;;;;2.93;2.57;;;;;;;;;;5059328;28;20041;-76
2022/10/19 10:29:38;;;;;;;4.18;2.20;;;;;;;;;;5053870;28;20327;-67
2022/10/19 10:32:06;;;;;;;1.83;1.58;;;;;;;;;;5055020;28;20087;-72
2022/10/19 10:34:40;;;;;;;1.88;1.73;;;;;;;;;;5058848;28;20057;-74
2022/10/19 10:37:48;;;;;;;3.17;2.88;;;;;;;;;;5061001;28;20041;-76
2022/10/19 10:40:21;;;;;;;2.10;1.90;;;;;;;;;;5064514;28;20471;-67
2022/10/19 10:42:50;;;;;;;3.95;2.78;;;;;;;;;;5064224;28;20049;-75
2022/10/19 10:45:39;;;;;;;4.40;1.75;;;;;;;;;;5045985;28;20040;-74
2022/10/19 10:48:41;;;;;;;2.70;1.98;;;;;;;;;;5053199;28;20048;-72
2022/10/19 10:51:38;;;;;;;2.65;1.98;;;;;;;;;;5063589;28;20114;-72
2022/10/19 10:54:16;;;;;;;3.95;1.77;;;;;;;;;;5047587;28;20542;-72
2022/10/19 10:56:43;;;;;;;3.20;2.03;;;;;;;;;;5061812;28;20045;-71
2022/10/19 10:59:18;;;;;;;3.55;2.83;;;;;;;;;;5056331;28;20041;-73
2022/10/19 11:02:19;;;;;;;5.82;2.50;;;;;;;;;;5048519;28;20110;-69
2022/10/19 11:05:05;;;;;;;2.17;1.98;;;;;;;;;;5062069;28;20053;-64
2022/10/19 11:07:32;;;;;;;3.95;2.47;;;;;;;;;;5059514;28;20081;-66
2022/10/19 11:10:21;;;;;;;2.65;2.45;;;;;;;;;;5043829;28;20127;-68
2022/10/19 11:12:57;;;;;;;4.15;2.85;;;;;;;;;;5043089;28;20060;-64
2022/10/19 11:15:32;;;;;;;4.55;3.20;;;;;;;;;;5060924;28;20140;-65
2022/10/19 11:18:04;;;;;;;12.57;2.80;;;;;;;;;;5044862;28;20045;-67
2022/10/19 11:20:31;;;;;;;3.20;2.90;;;;;;;;;;5055937;28;20114;-67
2022/10/19 11:23:26;;;;;;;4.65;2.95;;;;;;;;;;5062326;28;20101;-69
2022/10/19 11:26:22;;;;;;;3.40;3.10;;;;;;;;;;5045180;28;20105;-67
2022/10/19 11:29:11;;;;;;;4.47;2.50;;;;;;;;;;5043374;28;20139;-72
2022/10/19 11:31:49;;;;;;;4.10;2.70;;;;;;;;;;5062434;28;20052;-74
2022/10/19 11:34:44;;;;;;;7.05;2.58;;;;;;;;;;5059853;28;20048;-72
2022/10/19 11:37:25;;;;;;;2.35;2.15;;;;;;;;;;5063077;28;20041;-66
2022/10/19 11:39:55;;;;;;;3.13;2.70;;;;;;;;;;5060608;28;20048;-65
2022/10/19 11:42:40;;;;;;;2.50;2.22;;;;;;;;;;5061183;28;20085;-66
2022/10/19 11:45:47;;;;;;;3.90;2.30;;;;;;;;;;5059292;28;20041;-67
2022/10/19 11:48:25;;;;;;;2.40;2.20;;;;;;;;;;5045031;28;20106;-65
2022/10/19 11:51:15;;;;;;;2.47;1.98;;;;;;;;;;5061269;28;20069;-65
2022/10/19 11:54:14;;;;;;;2.95;2.42;;;;;;;;;;5062406;28;20083;-65
2022/10/19 11:57:11;;;;;;;3.70;2.50;;;;;;;;;;5063590;28;20190;-66
2022/10/19 11:59:56;;;;;;;3.40;1.88;;;;;;;;;;5063330;28;20052;-66
2022/10/19 12:03:13;;;;;;;2.38;2.13;;;;;;;;;;5062750;28;20040;-66
2022/10/19 12:06:01;;;;;;;2.15;1.95;;;;;;;;;;5058509;28;20977;-65
2022/10/19 12:08:38;;;;;;;2.45;1.58;;;;;;;;;;5052242;28;20080;-65
2022/10/19 12:11:24;;;;;;;2.90;1.75;;;;;;;;;;5058317;28;20492;-66
2022/10/19 12:13:56;;;;;;;2.47;1.90;;;;;;;;;;5059773;28;20602;-66
2022/10/19 12:16:34;;;;;;;2.10;1.88;;;;;;;;;;5057591;28;20095;-66
2022/10/19 12:19:01;;;;;;;1.63;1.50;;;;;;;;;;5041810;28;20048;-66
2022/10/19 12:21:35;;;;;;;1.85;1.60;;;;;;;;;;5041372;28;20045;-67
2022/10/19 12:24:03;;;;;;;2.65;1.88;;;;;;;;;;5064108;28;20044;-67
2022/10/19 12:26:33;;;;;;;4.40;1.67;;;;;;;;;;5060259;28;20040;-66
2022/10/19 12:29:02;;;;;;;3.90;1.83;;;;;;;;;;5056084;28;20102;-67
2022/10/19 12:31:29;;;;;;;2.35;1.83;;;;;;;;;;5060762;28;20044;-66
2022/10/19 12:34:07;;;;;;;4.82;2.13;;;;;;;;;;5049041;28;20045;-66
2022/10/19 12:37:12;;;;;;;4.10;2.05;;;;;;;;;;5057427;28;20925;-67
2022/10/19 12:39:45;;;;;;;3.25;1.70;;;;;;;;;;5057468;28;20067;-66
2022/10/19 12:42:18;;;;;;;1.83;1.73;;;;;;;;;;5059084;28;20078;-67
2022/10/19 12:45:06;;;;;;;2.42;1.65;;;;;;;;;;5057849;28;20072;-67
2022/10/19 12:47:33;;;;;;;2.65;1.60;;;;;;;;;;5057277;28;20087;-66
2022/10/19 12:50:00;;;;;;;3.13;1.88;;;;;;;;;;5060307;28;20048;-67
2022/10/19 12:52:51;;;;;;;6.18;1.95;;;;;;;;;;5056803;28;20101;-67
2022/10/19 12:55:33;;;;;;;1.52;1.40;;;;;;;;;;5060361;28;20554;-66
2022/10/19 12:58:02;;;;;;;;;;;;;;;;;;5058970;28;20048;-67
2022/10/19 13:00:34;;;;;;;1.80;1.50;;;;;;;;;;5063910;28;19978;-67
2022/10/19 13:03:02;;;;;;;2.75;1.70;;;;;;;;;;5040859;28;20084;-67
2022/10/19 13:05:30;;;;;;;2.55;2.08;;;;;;;;;;5063649;28;20102;-67
2022/10/19 13:07:57;;;;;;;1.83;1.67;;;;;;;;;;5040178;28;20127;-67
2022/10/19 13:10:25;;;;;;;2.50;1.75;;;;;;;;;;5060296;28;20044;-66
2022/10/19 13:12:52;;;;;;;3.08;2.10;;;;;;;;;;5056730;28;20079;-66
2022/10/19 13:15:34;;;;;;;3.70;1.90;;;;;;;;;;5047415;28;20088;-66
2022/10/19 13:18:12;;;;;;;5.88;2.10;;;;;;;;;;5060729;28;20072;-69
2022/10/19 13:20:38;;;;;;;2.70;2.08;;;;;;;;;;5041423;28;20102;-67
2022/10/19 13:23:06;;;;;;;4.22;1.60;;;;;;;;;;5057998;28;20098;-66
2022/10/19 13:25:34;;;;;;;2.92;2.00;;;;;;;;;;5060244;28;20462;-67
2022/10/19 13:28:08;;;;;;;7.85;2.22;;;;;;;;;;5053158;28;20110;-67
2022/10/19 13:30:34;;;;;;;3.13;1.80;;;;;;;;;;5052147;28;20053;-66
2022/10/19 13:33:32;;;;;;;2.75;1.70;;;;;;;;;;5052044;28;20492;-68
2022/10/19 13:35:58;;;;;;;3.53;1.85;;;;;;;;;;5052738;28;20111;-66
2022/10/19 13:38:28;;;;;;;4.70;2.10;;;;;;;;;;5054826;28;20063;-66
2022/10/19 13:41:04;;;;;;;1.70;1.60;;;;;;;;;;5072144;28;20495;-66
2022/10/19 13:43:38;;;;;;;4.32;2.33;;;;;;;;;;5071355;28;20053;-66
2022/10/19 13:46:13;;;;;;;2.72;2.15;;;;;;;;;;5071397;28;20049;-66
2022/10/19 13:49:02;;;;;;;3.17;1.80;;;;;;;;;;5065852;28;20045;-67
2022/10/19 13:51:47;;;;;;;3.25;1.75;;;;;;;;;;5062804;28;20650;-67
2022/10/19 13:54:44;;;;;;;2.35;1.77;;;;;;;;;;5072049;28;20526;-67
2022/10/19 13:57:18;;;;;;;2.92;1.75;;;;;;;;;;5072155;28;20076;-67
2022/10/19 13:59:45;;;;;;;3.90;1.58;;;;;;;;;;5057739;28;20419;-66
2022/10/19 14:02:33;;;;;;;2.80;1.90;;;;;;;;;;5050478;28;20085;-66
2022/10/19 14:05:18;;;;;;;1.63;1.52;;;;;;;;;;5051994;28;20511;-68
2022/10/19 14:08:23;;;;;;;2.20;2.00;;;;;;;;;;5051970;28;20048;-66
2022/10/19 14:10:57;;;;;;;3.20;1.63;;;;;;;;;;5020061;28;20152;-67
2022/10/19 14:13:27;;;;;;;3.53;2.25;;;;;;;;;;5035891;28;20091;-67
2022/10/19 14:15:55;;;;;;;3.08;1.77;;;;;;;;;;5034700;28;20049;-65
2022/10/19 14:18:25;;;;;;;3.75;1.63;;;;;;;;;;5043640;28;20067;-65
2022/10/19 14:21:05;;;;;;;2.78;1.85;;;;;;;;;;5052808;28;20048;-65
2022/10/19 14:23:34;;;;;;;2.65;1.60;;;;;;;;;;5056730;28;20040;-67
2022/10/19 14:26:16;;;;;;;2.28;1.80;;;;;;;;;;5060712;28;20052;-67
2022/10/19 14:28:42;;;;;;;2.70;1.88;;;;;;;;;;5058439;28;20396;-66
2022/10/19 14:31:15;;;;;;;2.20;1.98;;;;;;;;;;5041604;28;20496;-68
2022/10/19 14:33:45;;;;;;;1.75;1.65;;;;;;;;;;5060055;28;20087;-67
2022/10/19 14:36:15;;;;;;;2.20;1.70;;;;;;;;;;5058217;28;20044;-66
2022/10/19 14:38:45;;;;;;;2.28;2.03;;;;;;;;;;5055502;28;20083;-66
2022/10/19 14:41:25;;;;;;;3.75;2.13;;;;;;;;;;5056490;28;20044;-66
2022/10/19 14:43:53;;;;;;;3.33;1.88;;;;;;;;;;5056117;28;20083;-64
2022/10/19 14:46:19;;;;;;;4.22;1.73;;;;;;;;;;5057587;28;20083;-66
2022/10/19 14:48:48;;;;;;;3.33;1.95;;;;;;;;;;5055109;28;20092;-65
2022/10/19 14:51:37;;;;;;;3.67;2.35;;;;;;;;;;5061191;28;20487;-65
2022/10/19 14:54:11;;;;;;;2.00;1.90;;;;;;;;;;5060372;28;20072;-65
2022/10/19 14:56:50;;;;;;;7.32;2.00;;;;;;;;;;5034487;28;20045;-65
2022/10/19 14:59:36;;;;;;;4.38;2.03;;;;;;;;;;5055664;28;20135;-65
2022/10/19 15:02:11;;;;;;;4.82;2.20;;;;;;;;;;5059011;28;20041;-65